createdAt,value
2023-03-27T00:01:26.572Z,5.97
2023-03-27T00:03:53.806Z,6.40
2023-03-27T00:06:22.119Z,4.55
2023-03-27T00:08:53.223Z,7.10
2023-03-27T00:11:25.277Z,3.75
2023-03-27T00:13:54.553Z,8.48
2023-03-27T00:16:25.406Z,4.82
2023-03-27T00:18:53.427Z,7.75
2023-03-27T00:21:22.572Z,9.60
2023-03-27T00:23:50.007Z,9.57
2023-03-27T00:26:17.195Z,4.50
2023-03-27T00:28:44.213Z,9.05
2023-03-27T00:31:12.947Z,7.30
2023-03-27T00:33:40.686Z,10.90
2023-03-27T00:36:08.465Z,13.63
2023-03-27T00:38:35.502Z,8.07
2023-03-27T00:41:03.205Z,9.55
2023-03-27T00:43:34.202Z,8.27
2023-03-27T00:46:16.256Z,7.65
2023-03-27T00:48:47.335Z,13.65
2023-03-27T00:51:15.895Z,10.80
2023-03-27T00:53:44.067Z,9.95
2023-03-27T00:56:12.688Z,9.45
2023-03-27T00:58:44.950Z,7.25
2023-03-27T01:01:14.806Z,10.18
2023-03-27T01:03:44.285Z,9.35
2023-03-27T01:06:14.038Z,8.85
2023-03-27T01:08:44.245Z,7.55
2023-03-27T01:11:29.406Z,7.38
2023-03-27T01:14:12.285Z,6.00
2023-03-27T01:16:47.864Z,6.68
2023-03-27T01:20:01.845Z,10.55
2023-03-27T01:22:42.790Z,7.45
2023-03-27T01:25:28.444Z,5.45
2023-03-27T01:27:58.559Z,8.45
2023-03-27T01:30:33.901Z,4.30
2023-03-27T01:33:36.634Z,9.07
2023-03-27T01:36:26.105Z,6.85
2023-03-27T01:39:02.796Z,9.27
2023-03-27T01:41:52.531Z,12.57
2023-03-27T01:44:58.093Z,7.90
2023-03-27T01:47:39.758Z,9.95
2023-03-27T01:50:45.182Z,5.90
2023-03-27T01:53:30.171Z,9.75
2023-03-27T01:56:06.012Z,8.75
2023-03-27T01:58:46.465Z,6.75
2023-03-27T02:01:18.338Z,9.52
2023-03-27T02:03:57.232Z,9.52
2023-03-27T02:06:31.577Z,8.15
2023-03-27T02:09:11.561Z,8.70
2023-03-27T02:11:44.950Z,7.93
2023-03-27T02:14:17.407Z,7.20
2023-03-27T02:16:49.307Z,11.85
2023-03-27T02:19:28.787Z,7.60
2023-03-27T02:21:55.688Z,5.47
2023-03-27T02:24:22.616Z,10.60
2023-03-27T02:26:57.923Z,9.75
2023-03-27T02:29:54.860Z,5.13
2023-03-27T02:32:48.399Z,7.85
2023-03-27T02:35:29.662Z,7.43
2023-03-27T02:38:19.365Z,12.27
2023-03-27T02:41:08.372Z,10.93
2023-03-27T02:43:49.664Z,8.05
2023-03-27T02:46:56.690Z,12.77
2023-03-27T02:49:33.076Z,8.55
2023-03-27T02:52:09.817Z,9.65
2023-03-27T02:54:44.035Z,9.35
2023-03-27T02:57:17.091Z,10.23
2023-03-27T02:59:49.339Z,5.22
2023-03-27T03:02:24.745Z,9.35
2023-03-27T03:05:08.728Z,4.97
2023-03-27T03:07:38.314Z,10.35
2023-03-27T03:10:09.853Z,5.68
2023-03-27T03:12:37.604Z,5.75
2023-03-27T03:15:05.314Z,7.05
2023-03-27T03:17:32.144Z,5.20
2023-03-27T03:19:59.860Z,3.45
2023-03-27T03:22:27.155Z,5.97
2023-03-27T03:24:53.996Z,6.45
2023-03-27T03:27:21.115Z,6.40
2023-03-27T03:29:48.562Z,4.00
2023-03-27T03:32:16.053Z,4.13
2023-03-27T03:34:46.612Z,9.43
2023-03-27T03:37:13.944Z,3.33
2023-03-27T03:39:40.773Z,3.22
2023-03-27T03:42:09.129Z,4.10
2023-03-27T03:44:37.216Z,8.13
2023-03-27T03:47:04.849Z,9.68
2023-03-27T03:49:31.779Z,6.45
2023-03-27T03:52:03.667Z,3.90
2023-03-27T03:54:33.783Z,5.97
2023-03-27T03:57:01.073Z,4.38
2023-03-27T03:59:28.535Z,5.53
2023-03-27T04:01:55.912Z,5.53
2023-03-27T04:04:22.841Z,4.82
2023-03-27T04:06:49.756Z,6.40
2023-03-27T04:09:17.458Z,4.60
2023-03-27T04:11:44.345Z,5.35
2023-03-27T04:14:11.210Z,3.13
2023-03-27T04:16:38.818Z,8.25
2023-03-27T04:19:06.175Z,6.30
2023-03-27T04:21:33.185Z,5.97
2023-03-27T04:24:02.779Z,5.18
2023-03-27T04:26:30.148Z,6.85
2023-03-27T04:28:57.192Z,8.10
2023-03-27T04:31:25.136Z,5.22
2023-03-27T04:33:52.531Z,5.70
2023-03-27T04:36:19.854Z,8.38
2023-03-27T04:38:48.149Z,3.75
2023-03-27T04:41:15.521Z,3.05
2023-03-27T04:43:42.521Z,5.20
2023-03-27T04:46:09.991Z,3.97
2023-03-27T04:48:39.102Z,5.50
2023-03-27T04:51:07.037Z,5.80
2023-03-27T04:53:36.268Z,4.55
2023-03-27T04:56:05.530Z,7.72
2023-03-27T04:58:35.273Z,3.38
2023-03-27T05:01:06.313Z,2.08
2023-03-27T05:03:35.557Z,3.00
2023-03-27T05:06:04.645Z,3.90
2023-03-27T05:08:32.765Z,3.70
2023-03-27T05:10:59.664Z,5.22
2023-03-27T05:13:26.559Z,6.88
2023-03-27T05:15:53.407Z,8.20
2023-03-27T05:18:20.869Z,5.32
2023-03-27T05:20:50.011Z,5.20
2023-03-27T05:23:17.068Z,7.97
2023-03-27T05:26:00.195Z,4.28
2023-03-27T05:28:28.440Z,8.02
2023-03-27T05:30:58.951Z,2.65
2023-03-27T05:33:25.990Z,5.32
2023-03-27T05:35:53.386Z,4.43
2023-03-27T05:38:20.586Z,3.10
2023-03-27T05:40:47.390Z,4.05
2023-03-27T05:43:14.352Z,6.22
2023-03-27T05:45:41.388Z,8.70
2023-03-27T05:48:09.451Z,7.43
2023-03-27T05:50:37.383Z,5.88
2023-03-27T05:53:08.993Z,3.92
2023-03-27T05:55:37.213Z,4.57
2023-03-27T05:58:06.251Z,6.70
2023-03-27T06:00:34.436Z,3.88
2023-03-27T06:03:04.045Z,5.13
2023-03-27T06:05:32.590Z,7.72
2023-03-27T06:07:59.624Z,9.65
2023-03-27T06:10:29.233Z,4.13
2023-03-27T06:13:05.246Z,9.32
2023-03-27T06:15:33.721Z,5.00
2023-03-27T06:18:00.799Z,9.10
2023-03-27T06:20:27.701Z,7.65
2023-03-27T06:22:56.859Z,9.13
2023-03-27T06:25:25.743Z,8.73
2023-03-27T06:27:54.356Z,5.35
2023-03-27T06:30:24.853Z,7.50
2023-03-27T06:32:57.807Z,8.38
2023-03-27T06:35:27.191Z,8.88
2023-03-27T06:37:55.929Z,10.30
2023-03-27T06:40:25.338Z,13.13
2023-03-27T06:42:54.777Z,9.35
2023-03-27T06:45:23.641Z,7.50
2023-03-27T06:47:54.822Z,8.18
2023-03-27T06:50:24.587Z,8.70
2023-03-27T06:52:51.739Z,2.85
2023-03-27T06:55:21.065Z,5.38
2023-03-27T06:57:53.329Z,3.80
2023-03-27T07:00:24.537Z,7.07
2023-03-27T07:02:56.875Z,6.32
2023-03-27T07:05:26.493Z,4.80
2023-03-27T07:07:54.784Z,7.80
2023-03-27T07:10:22.844Z,6.45
2023-03-27T07:12:51.932Z,9.50
2023-03-27T07:15:19.154Z,8.65
2023-03-27T07:17:54.172Z,7.68
2023-03-27T07:20:21.773Z,8.82
2023-03-27T07:22:48.653Z,6.63
2023-03-27T07:25:15.737Z,6.25
2023-03-27T07:27:42.584Z,10.60
2023-03-27T07:30:12.275Z,7.65
2023-03-27T07:32:41.972Z,6.13
2023-03-27T07:35:09.572Z,4.43
2023-03-27T07:37:39.549Z,5.30
2023-03-27T07:40:08.203Z,6.32
2023-03-27T07:42:35.421Z,5.75
2023-03-27T07:45:04.449Z,7.78
2023-03-27T07:47:32.257Z,8.38
2023-03-27T07:49:59.170Z,4.93
2023-03-27T07:52:26.209Z,12.35
2023-03-27T07:54:53.205Z,16.52
2023-03-27T07:57:20.163Z,8.77
2023-03-27T07:59:47.269Z,12.15
2023-03-27T08:02:14.295Z,9.52
2023-03-27T08:04:41.768Z,5.68
2023-03-27T08:07:10.165Z,5.45
2023-03-27T08:09:37.377Z,6.63
2023-03-27T08:12:07.746Z,6.28
2023-03-27T08:14:34.545Z,4.55
2023-03-27T08:17:14.442Z,6.78
2023-03-27T08:19:45.521Z,11.00
2023-03-27T08:22:12.821Z,10.48
2023-03-27T08:24:40.059Z,13.48
2023-03-27T08:27:07.210Z,4.57
2023-03-27T08:29:34.113Z,9.60
2023-03-27T08:32:01.616Z,8.48
2023-03-27T08:34:29.574Z,8.23
2023-03-27T08:36:56.561Z,12.13
2023-03-27T08:39:23.646Z,7.15
2023-03-27T08:41:55.920Z,9.52
2023-03-27T08:44:25.049Z,13.10
2023-03-27T08:47:01.618Z,8.00
2023-03-27T08:49:33.282Z,6.80
2023-03-27T08:52:08.993Z,11.68
2023-03-27T08:54:38.396Z,7.15
2023-03-27T08:57:19.909Z,10.18
2023-03-27T08:59:47.452Z,8.50
2023-03-27T09:02:33.981Z,7.88
2023-03-27T09:05:08.851Z,5.25
2023-03-27T09:07:48.142Z,7.95
2023-03-27T09:10:15.413Z,4.75
2023-03-27T09:13:04.843Z,5.57
2023-03-27T09:15:49.512Z,3.35
2023-03-27T09:18:41.255Z,5.35
2023-03-27T09:21:19.980Z,7.38
2023-03-27T09:23:48.350Z,7.25
2023-03-27T09:26:20.189Z,10.00
2023-03-27T09:28:51.355Z,7.07
2023-03-27T09:31:21.121Z,8.60
2023-03-27T09:33:48.110Z,5.10
2023-03-27T09:36:15.087Z,7.95
2023-03-27T09:38:46.462Z,6.97
2023-03-27T09:41:26.768Z,5.30
2023-03-27T09:44:17.973Z,8.82
2023-03-27T09:46:48.945Z,7.28
2023-03-27T09:49:21.027Z,9.35
2023-03-27T09:51:52.908Z,6.78
2023-03-27T09:54:22.574Z,7.90
2023-03-27T09:57:07.043Z,5.85
2023-03-27T09:59:37.894Z,7.43
2023-03-27T10:02:27.205Z,9.27
2023-03-27T10:05:04.544Z,9.35
2023-03-27T10:07:31.574Z,13.60
2023-03-27T10:10:15.769Z,6.55
2023-03-27T10:12:43.814Z,6.95
2023-03-27T10:15:39.202Z,12.93
2023-03-27T10:18:24.844Z,10.00
2023-03-27T10:20:59.449Z,10.68
2023-03-27T10:23:28.285Z,11.27
2023-03-27T10:26:01.634Z,8.77
2023-03-27T10:28:36.655Z,7.93
2023-03-27T10:31:11.221Z,7.30
2023-03-27T10:33:41.365Z,6.50
2023-03-27T10:36:10.633Z,3.70
2023-03-27T10:38:40.775Z,6.00
2023-03-27T10:41:17.624Z,8.85
2023-03-27T10:43:56.896Z,8.85
2023-03-27T10:46:27.905Z,11.20
2023-03-27T10:49:10.109Z,10.68
2023-03-27T10:51:52.548Z,8.77
2023-03-27T10:54:45.606Z,3.80
2023-03-27T10:57:30.976Z,7.47
2023-03-27T11:00:20.541Z,9.00
2023-03-27T11:02:53.703Z,10.77
2023-03-27T11:05:36.347Z,7.75
2023-03-27T11:08:18.245Z,5.75
2023-03-27T11:10:47.175Z,6.68
2023-03-27T11:13:23.395Z,3.17
2023-03-27T11:16:01.005Z,7.00
2023-03-27T11:18:37.797Z,5.35
2023-03-27T11:21:14.481Z,9.98
2023-03-27T11:23:53.114Z,9.23
2023-03-27T11:26:23.223Z,7.72
2023-03-27T11:29:16.978Z,9.75
2023-03-27T11:31:48.460Z,7.30
2023-03-27T11:34:28.921Z,7.03
2023-03-27T11:37:01.164Z,11.07
2023-03-27T11:39:53.154Z,9.07
2023-03-27T11:42:26.853Z,8.75
2023-03-27T11:44:54.151Z,9.80
2023-03-27T11:48:07.402Z,7.57
2023-03-27T11:50:39.341Z,10.85
2023-03-27T11:53:31.145Z,9.40
2023-03-27T11:56:12.580Z,9.40
2023-03-27T11:58:59.917Z,8.30
2023-03-27T12:01:41.881Z,6.15
2023-03-27T12:04:27.768Z,7.50
2023-03-27T12:07:33.932Z,9.20
2023-03-27T12:10:18.527Z,11.23
2023-03-27T12:12:59.733Z,11.15
2023-03-27T12:15:32.709Z,11.85
2023-03-27T12:18:35.361Z,9.25
2023-03-27T12:21:14.870Z,8.07
2023-03-27T12:24:16.798Z,4.35
2023-03-27T12:27:15.819Z,6.93
2023-03-27T12:29:53.367Z,6.15
2023-03-27T12:32:38.968Z,12.73
2023-03-27T12:35:12.383Z,9.45
2023-03-27T12:38:09.927Z,9.95
2023-03-27T12:40:41.920Z,6.00
2023-03-27T12:43:29.546Z,7.35
2023-03-27T12:46:15.879Z,5.93
2023-03-27T12:48:54.483Z,7.80
2023-03-27T12:51:48.345Z,6.60
2023-03-27T12:54:34.049Z,7.53
2023-03-27T12:57:21.428Z,4.13
2023-03-27T12:59:48.373Z,7.45
2023-03-27T13:02:16.095Z,6.40
2023-03-27T13:05:27.612Z,7.55
2023-03-27T13:08:10.376Z,6.97
2023-03-27T13:10:56.594Z,3.72
2023-03-27T13:13:51.026Z,11.45
2023-03-27T13:16:48.515Z,7.78
2023-03-27T13:19:40.411Z,9.73
2023-03-27T13:22:33.141Z,5.70
2023-03-27T13:25:31.766Z,7.50
2023-03-27T13:28:30.745Z,8.77
2023-03-27T13:31:00.078Z,10.38
2023-03-27T13:33:40.685Z,12.15
2023-03-27T13:36:19.463Z,5.90
2023-03-27T13:38:51.940Z,8.23
2023-03-27T13:41:49.129Z,12.38
2023-03-27T13:44:25.245Z,5.72
2023-03-27T13:47:14.641Z,6.55
2023-03-27T13:49:41.701Z,13.05
2023-03-27T13:52:19.977Z,6.53
2023-03-27T13:55:10.716Z,8.18
2023-03-27T13:57:58.579Z,7.15
2023-03-27T14:00:44.855Z,9.73
2023-03-27T14:03:18.364Z,8.48
2023-03-27T14:06:01.464Z,7.13
2023-03-27T14:08:55.400Z,6.65
2023-03-27T14:11:23.806Z,5.50
2023-03-27T14:14:08.599Z,7.93
2023-03-27T14:16:57.316Z,6.70
2023-03-27T14:19:39.573Z,9.88
2023-03-27T14:22:28.035Z,8.82
2023-03-27T14:25:02.734Z,8.73
2023-03-27T14:27:32.558Z,7.50
2023-03-27T14:30:24.329Z,5.18
2023-03-27T14:32:52.636Z,12.77
2023-03-27T14:35:42.638Z,5.82
2023-03-27T14:38:24.932Z,10.32
2023-03-27T14:40:57.086Z,12.10
2023-03-27T14:43:27.628Z,13.85
2023-03-27T14:46:02.330Z,5.68
2023-03-27T14:48:37.446Z,15.60
2023-03-27T14:51:10.519Z,7.95
2023-03-27T14:53:44.211Z,6.65
2023-03-27T14:56:30.873Z,13.25
2023-03-27T14:59:04.438Z,11.20
2023-03-27T15:01:32.048Z,12.13
2023-03-27T15:04:02.278Z,10.10
2023-03-27T15:06:36.443Z,5.30
2023-03-27T15:09:05.726Z,7.38
2023-03-27T15:11:41.099Z,7.18
2023-03-27T15:14:18.415Z,9.38
2023-03-27T15:17:12.055Z,6.45
2023-03-27T15:19:49.407Z,8.75
2023-03-27T15:22:23.232Z,8.52
2023-03-27T15:25:01.057Z,4.75
2023-03-27T15:27:35.544Z,6.05
2023-03-27T15:30:28.952Z,7.90
2023-03-27T15:33:02.205Z,7.78
2023-03-27T15:35:51.885Z,6.28
2023-03-27T15:38:26.109Z,6.63
2023-03-27T15:41:01.355Z,5.50
2023-03-27T15:43:30.195Z,4.22
2023-03-27T15:46:12.041Z,7.47
2023-03-27T15:48:50.803Z,6.90
2023-03-27T15:51:20.771Z,6.93
2023-03-27T15:53:50.180Z,6.93
2023-03-27T15:56:22.392Z,6.22
2023-03-27T15:59:01.864Z,6.80
2023-03-27T16:01:40.827Z,8.13
2023-03-27T16:04:12.439Z,7.63
2023-03-27T16:06:44.017Z,5.43
2023-03-27T16:09:39.855Z,4.82
2023-03-27T16:12:09.499Z,7.72
2023-03-27T16:14:52.847Z,6.15
2023-03-27T16:17:45.681Z,13.70
2023-03-27T16:20:13.327Z,8.75
2023-03-27T16:22:40.605Z,4.22
2023-03-27T16:25:09.901Z,7.25
2023-03-27T16:27:43.562Z,4.53
2023-03-27T16:30:36.148Z,7.60
2023-03-27T16:33:04.072Z,9.40
2023-03-27T16:35:32.473Z,9.93
2023-03-27T16:37:59.977Z,6.55
2023-03-27T16:40:27.450Z,7.80
2023-03-27T16:42:54.343Z,6.15
2023-03-27T16:45:21.502Z,4.80
2023-03-27T16:47:52.305Z,6.82
2023-03-27T16:50:24.675Z,7.80
2023-03-27T16:52:51.724Z,11.40
2023-03-27T16:55:19.708Z,8.93
2023-03-27T16:57:46.850Z,6.68
2023-03-27T17:00:15.693Z,8.35
2023-03-27T17:02:44.627Z,5.47
2023-03-27T17:05:12.189Z,6.93
2023-03-27T17:07:41.829Z,7.82
2023-03-27T17:10:10.530Z,9.25
2023-03-27T17:12:37.950Z,9.15
2023-03-27T17:15:05.876Z,8.95
2023-03-27T17:17:32.954Z,9.07
2023-03-27T17:20:00.792Z,12.90
2023-03-27T17:22:29.957Z,10.25
2023-03-27T17:25:01.262Z,9.00
2023-03-27T17:27:28.579Z,9.88
2023-03-27T17:29:59.716Z,4.40
2023-03-27T17:32:29.759Z,7.53
2023-03-27T17:34:56.987Z,8.35
2023-03-27T17:37:24.314Z,10.40
2023-03-27T17:39:51.563Z,9.07
2023-03-27T17:42:18.713Z,5.97
2023-03-27T17:44:46.012Z,7.15
2023-03-27T17:47:14.013Z,7.22
2023-03-27T17:49:43.359Z,10.90
2023-03-27T17:52:12.036Z,3.35
2023-03-27T17:54:39.358Z,9.13
2023-03-27T17:57:06.361Z,4.50
2023-03-27T17:59:33.495Z,7.28
2023-03-27T18:02:00.494Z,9.93
2023-03-27T18:04:27.582Z,8.98
2023-03-27T18:06:54.788Z,6.55
2023-03-27T18:09:21.859Z,8.32
2023-03-27T18:11:48.877Z,7.18
2023-03-27T18:14:15.772Z,11.75
2023-03-27T18:16:42.959Z,8.95
2023-03-27T18:19:10.070Z,9.43
2023-03-27T18:21:37.057Z,8.85
2023-03-27T18:24:04.180Z,12.80
2023-03-27T18:26:31.292Z,10.32
2023-03-27T18:28:58.268Z,9.50
2023-03-27T18:31:25.677Z,9.95
2023-03-27T18:33:52.916Z,8.93
2023-03-27T18:36:20.441Z,9.60
2023-03-27T18:38:49.622Z,13.27
2023-03-27T18:41:16.805Z,9.82
2023-03-27T18:43:43.660Z,16.90
2023-03-27T18:46:16.704Z,11.40
2023-03-27T18:48:45.596Z,19.35
2023-03-27T18:51:12.660Z,19.40
2023-03-27T18:53:39.655Z,11.32
2023-03-27T18:56:07.396Z,9.25
2023-03-27T18:58:35.395Z,14.38
2023-03-27T19:01:08.520Z,17.73
2023-03-27T19:03:37.071Z,9.88
2023-03-27T19:06:06.604Z,10.50
2023-03-27T19:08:37.553Z,12.05
2023-03-27T19:11:08.250Z,6.97
2023-03-27T19:13:35.549Z,7.20
2023-03-27T19:16:02.483Z,6.53
2023-03-27T19:18:41.450Z,9.25
2023-03-27T19:21:08.490Z,12.18
2023-03-27T19:23:35.657Z,7.93
2023-03-27T19:26:11.131Z,8.10
2023-03-27T19:28:38.040Z,6.25
2023-03-27T19:31:10.027Z,7.32
2023-03-27T19:33:37.288Z,10.43
2023-03-27T19:36:04.846Z,8.27
2023-03-27T19:38:32.216Z,7.65
2023-03-27T19:40:59.838Z,7.75
2023-03-27T19:43:28.091Z,11.38
2023-03-27T19:46:14.213Z,10.45
2023-03-27T19:48:44.191Z,10.40
2023-03-27T19:51:11.162Z,13.38
2023-03-27T19:53:38.265Z,11.65
2023-03-27T19:56:05.848Z,12.02
2023-03-27T19:58:32.802Z,9.73
2023-03-27T20:01:00.353Z,6.63
2023-03-27T20:03:29.650Z,10.93
2023-03-27T20:06:07.861Z,6.95
2023-03-27T20:08:39.653Z,12.18
2023-03-27T20:11:07.265Z,16.05
2023-03-27T20:13:42.333Z,7.20
2023-03-27T20:16:16.509Z,13.68
2023-03-27T20:18:43.847Z,8.43
2023-03-27T20:21:13.755Z,8.52
2023-03-27T20:23:42.059Z,10.77
2023-03-27T20:26:09.389Z,10.68
2023-03-27T20:28:36.854Z,14.73
2023-03-27T20:31:05.650Z,7.45
2023-03-27T20:33:33.129Z,9.15
2023-03-27T20:36:00.399Z,12.38
2023-03-27T20:38:31.508Z,11.63
2023-03-27T20:41:03.976Z,12.90
2023-03-27T20:43:39.030Z,11.35
2023-03-27T20:46:06.988Z,9.20
2023-03-27T20:48:40.579Z,8.07
2023-03-27T20:51:17.631Z,12.07
2023-03-27T20:53:54.220Z,10.60
2023-03-27T20:56:22.240Z,11.60
2023-03-27T20:58:50.121Z,9.25
2023-03-27T21:01:19.509Z,11.60
2023-03-27T21:03:49.775Z,15.07
2023-03-27T21:06:19.791Z,9.93
2023-03-27T21:08:47.495Z,10.38
2023-03-27T21:11:14.586Z,8.02
2023-03-27T21:13:41.836Z,10.98
2023-03-27T21:16:09.238Z,8.40
2023-03-27T21:18:36.366Z,9.23
2023-03-27T21:21:03.425Z,12.55
2023-03-27T21:23:30.746Z,13.25
2023-03-27T21:25:58.262Z,12.93
2023-03-27T21:28:25.731Z,16.55
2023-03-27T21:30:52.830Z,12.32
2023-03-27T21:33:19.994Z,11.10
2023-03-27T21:35:47.954Z,12.10
2023-03-27T21:38:17.046Z,11.90
2023-03-27T21:40:45.744Z,11.95
2023-03-27T21:43:13.152Z,11.80
2023-03-27T21:45:40.325Z,19.77
2023-03-27T21:48:07.432Z,11.85
2023-03-27T21:50:34.420Z,13.68
2023-03-27T21:53:01.242Z,12.82
2023-03-27T21:55:28.144Z,9.68
2023-03-27T21:57:55.032Z,11.27
2023-03-27T22:00:22.054Z,11.38
2023-03-27T22:02:49.385Z,18.20
2023-03-27T22:05:16.332Z,17.52
2023-03-27T22:07:45.393Z,17.00
2023-03-27T22:10:13.489Z,11.70
2023-03-27T22:12:41.053Z,24.92
2023-03-27T22:15:08.838Z,14.55
2023-03-27T22:17:36.701Z,12.52
2023-03-27T22:20:05.939Z,19.70
2023-03-27T22:22:34.969Z,15.65
2023-03-27T22:25:02.131Z,18.00
2023-03-27T22:27:29.675Z,24.52
2023-03-27T22:29:56.750Z,21.58
2023-03-27T22:32:23.644Z,23.08
2023-03-27T22:34:50.710Z,23.15
2023-03-27T22:37:17.879Z,25.98
2023-03-27T22:39:45.097Z,26.75
2023-03-27T22:42:12.153Z,28.40
2023-03-27T22:44:39.407Z,23.42
2023-03-27T22:47:06.377Z,20.83
2023-03-27T22:49:33.281Z,20.20
2023-03-27T22:52:00.365Z,20.52
2023-03-27T22:54:27.297Z,23.98
2023-03-27T22:56:55.248Z,20.20
2023-03-27T22:59:22.407Z,18.77
2023-03-27T23:01:49.267Z,17.08
2023-03-27T23:04:18.115Z,13.55
2023-03-27T23:06:45.630Z,16.55
2023-03-27T23:09:12.622Z,15.02
2023-03-27T23:11:39.742Z,22.75
2023-03-27T23:14:06.672Z,17.75
2023-03-27T23:16:33.727Z,15.75
2023-03-27T23:19:00.939Z,17.73
2023-03-27T23:21:27.912Z,17.13
2023-03-27T23:23:55.083Z,17.95
2023-03-27T23:26:21.939Z,16.77
2023-03-27T23:28:48.741Z,15.75
2023-03-27T23:31:20.213Z,16.50
2023-03-27T23:33:50.388Z,22.60
2023-03-27T23:36:20.476Z,18.02
2023-03-27T23:38:48.349Z,13.90
2023-03-27T23:41:16.121Z,14.27
2023-03-27T23:43:44.138Z,22.92
2023-03-27T23:46:11.323Z,15.15
2023-03-27T23:48:40.071Z,14.32
2023-03-27T23:51:07.753Z,15.00
2023-03-27T23:53:35.371Z,14.13
2023-03-27T23:56:02.984Z,15.02
2023-03-27T23:58:32.753Z,14.43
